sensor_id;sensor_type;location;lat;lon;timestamp;temperature;humidity
10583;DHT22;33679;51.218;6.786;2023-12-07T00:00:37;7.80;99.90
10583;DHT22;33679;51.218;6.786;2023-12-07T00:03:09;7.80;99.90
10583;DHT22;33679;51.218;6.786;2023-12-07T00:06:08;7.70;99.90
10583;DHT22;33679;51.218;6.786;2023-12-07T00:08:46;7.70;99.90
10583;DHT22;33679;51.218;6.786;2023-12-07T00:11:19;7.60;99.90
10583;DHT22;33679;51.218;6.786;2023-12-07T00:13:53;7.60;99.90
10583;DHT22;33679;51.218;6.786;2023-12-07T00:16:27;7.50;99.90
10583;DHT22;33679;51.218;6.786;2023-12-07T00:19:09;7.50;99.90
10583;DHT22;33679;51.218;6.786;2023-12-07T00:21:55;7.50;99.90
10583;DHT22;33679;51.218;6.786;2023-12-07T00:24:28;7.50;99.90
10583;DHT22;33679;51.218;6.786;2023-12-07T00:27:09;7.60;99.90
10583;DHT22;33679;51.218;6.786;2023-12-07T00:29:41;7.70;99.90
10583;DHT22;33679;51.218;6.786;2023-12-07T00:32:15;7.70;99.90
10583;DHT22;33679;51.218;6.786;2023-12-07T00:34:53;7.70;99.90
10583;DHT22;33679;51.218;6.786;2023-12-07T00:37:32;7.60;99.90
10583;DHT22;33679;51.218;6.786;2023-12-07T00:40:09;7.70;99.90
10583;DHT22;33679;51.218;6.786;2023-12-07T00:42:41;7.70;99.90
10583;DHT22;33679;51.218;6.786;2023-12-07T00:45:14;7.70;99.90
10583;DHT22;33679;51.218;6.786;2023-12-07T00:47:51;7.70;99.90
10583;DHT22;33679;51.218;6.786;2023-12-07T00:50:23;7.60;99.90
10583;DHT22;33679;51.218;6.786;2023-12-07T00:52:55;7.60;99.90
10583;DHT22;33679;51.218;6.786;2023-12-07T00:55:29;7.60;99.90
10583;DHT22;33679;51.218;6.786;2023-12-07T00:58:16;7.60;99.90
10583;DHT22;33679;51.218;6.786;2023-12-07T01:00:48;7.60;99.90
10583;DHT22;33679;51.218;6.786;2023-12-07T01:03:26;7.60;99.90
10583;DHT22;33679;51.218;6.786;2023-12-07T01:06:00;7.50;99.90
10583;DHT22;33679;51.218;6.786;2023-12-07T01:08:32;7.50;99.90
10583;DHT22;33679;51.218;6.786;2023-12-07T01:11:05;7.60;99.90
10583;DHT22;33679;51.218;6.786;2023-12-07T01:13:39;7.50;99.90
10583;DHT22;33679;51.218;6.786;2023-12-07T01:16:11;7.50;99.90
10583;DHT22;33679;51.218;6.786;2023-12-07T01:18:45;7.50;99.90
10583;DHT22;33679;51.218;6.786;2023-12-07T01:21:18;7.50;99.90
10583;DHT22;33679;51.218;6.786;2023-12-07T01:23:51;7.50;99.90
10583;DHT22;33679;51.218;6.786;2023-12-07T01:26:24;7.50;99.90
10583;DHT22;33679;51.218;6.786;2023-12-07T01:28:57;7.50;99.90
10583;DHT22;33679;51.218;6.786;2023-12-07T01:31:30;7.40;99.90
10583;DHT22;33679;51.218;6.786;2023-12-07T01:34:04;7.40;99.90
10583;DHT22;33679;51.218;6.786;2023-12-07T01:36:37;7.40;99.90
10583;DHT22;33679;51.218;6.786;2023-12-07T01:39:10;7.40;99.90
10583;DHT22;33679;51.218;6.786;2023-12-07T01:41:44;7.40;99.90
10583;DHT22;33679;51.218;6.786;2023-12-07T01:44:18;7.30;99.90
10583;DHT22;33679;51.218;6.786;2023-12-07T01:46:51;7.30;99.90
10583;DHT22;33679;51.218;6.786;2023-12-07T01:49:25;7.30;99.90
10583;DHT22;33679;51.218;6.786;2023-12-07T01:51:58;7.30;99.90
10583;DHT22;33679;51.218;6.786;2023-12-07T01:54:31;7.30;99.90
10583;DHT22;33679;51.218;6.786;2023-12-07T01:57:06;7.30;99.90
10583;DHT22;33679;51.218;6.786;2023-12-07T01:59:39;7.20;99.90
10583;DHT22;33679;51.218;6.786;2023-12-07T02:02:12;7.20;99.90
10583;DHT22;33679;51.218;6.786;2023-12-07T02:04:46;7.20;99.90
10583;DHT22;33679;51.218;6.786;2023-12-07T02:07:19;7.20;99.90
10583;DHT22;33679;51.218;6.786;2023-12-07T02:09:52;7.20;99.90
10583;DHT22;33679;51.218;6.786;2023-12-07T02:12:25;7.10;99.90
10583;DHT22;33679;51.218;6.786;2023-12-07T02:15:01;7.20;99.90
10583;DHT22;33679;51.218;6.786;2023-12-07T02:17:37;7.20;99.90
10583;DHT22;33679;51.218;6.786;2023-12-07T02:20:16;7.20;99.90
10583;DHT22;33679;51.218;6.786;2023-12-07T02:22:53;7.20;99.90
10583;DHT22;33679;51.218;6.786;2023-12-07T02:25:31;7.20;99.90
10583;DHT22;33679;51.218;6.786;2023-12-07T02:28:06;7.20;99.90
10583;DHT22;33679;51.218;6.786;2023-12-07T02:30:39;7.30;99.90
10583;DHT22;33679;51.218;6.786;2023-12-07T02:33:12;7.30;99.90
10583;DHT22;33679;51.218;6.786;2023-12-07T02:35:46;7.30;99.90
10583;DHT22;33679;51.218;6.786;2023-12-07T02:38:19;7.30;99.90
10583;DHT22;33679;51.218;6.786;2023-12-07T02:40:56;7.30;99.90
10583;DHT22;33679;51.218;6.786;2023-12-07T02:43:33;7.40;99.90
10583;DHT22;33679;51.218;6.786;2023-12-07T02:46:06;7.40;99.90
10583;DHT22;33679;51.218;6.786;2023-12-07T02:48:38;7.40;99.90
10583;DHT22;33679;51.218;6.786;2023-12-07T02:51:11;7.40;99.90
10583;DHT22;33679;51.218;6.786;2023-12-07T02:53:46;7.50;99.90
10583;DHT22;33679;51.218;6.786;2023-12-07T02:56:18;7.50;99.90
10583;DHT22;33679;51.218;6.786;2023-12-07T02:58:53;7.50;99.90
10583;DHT22;33679;51.218;6.786;2023-12-07T03:01:28;7.50;99.90
10583;DHT22;33679;51.218;6.786;2023-12-07T03:04:00;7.50;99.90
10583;DHT22;33679;51.218;6.786;2023-12-07T03:06:32;7.50;99.90
10583;DHT22;33679;51.218;6.786;2023-12-07T03:09:05;7.50;99.90
10583;DHT22;33679;51.218;6.786;2023-12-07T03:11:37;7.60;99.90
10583;DHT22;33679;51.218;6.786;2023-12-07T03:14:11;7.50;99.90
10583;DHT22;33679;51.218;6.786;2023-12-07T03:16:44;7.60;99.90
10583;DHT22;33679;51.218;6.786;2023-12-07T03:19:16;7.60;99.90
10583;DHT22;33679;51.218;6.786;2023-12-07T03:21:48;7.50;99.90
10583;DHT22;33679;51.218;6.786;2023-12-07T03:24:21;7.50;99.90
10583;DHT22;33679;51.218;6.786;2023-12-07T03:26:53;7.60;99.90
10583;DHT22;33679;51.218;6.786;2023-12-07T03:29:30;7.60;99.90
10583;DHT22;33679;51.218;6.786;2023-12-07T03:32:03;7.60;99.90
10583;DHT22;33679;51.218;6.786;2023-12-07T03:34:35;7.60;99.90
10583;DHT22;33679;51.218;6.786;2023-12-07T03:37:08;7.60;99.90
10583;DHT22;33679;51.218;6.786;2023-12-07T03:39:40;7.60;99.90
10583;DHT22;33679;51.218;6.786;2023-12-07T03:42:13;7.60;99.90
10583;DHT22;33679;51.218;6.786;2023-12-07T03:44:47;7.60;99.90
10583;DHT22;33679;51.218;6.786;2023-12-07T03:47:19;7.60;99.90
10583;DHT22;33679;51.218;6.786;2023-12-07T03:49:52;7.50;99.90
10583;DHT22;33679;51.218;6.786;2023-12-07T03:52:24;7.60;99.90
10583;DHT22;33679;51.218;6.786;2023-12-07T03:54:56;7.60;99.90
10583;DHT22;33679;51.218;6.786;2023-12-07T03:57:34;7.60;99.90
10583;DHT22;33679;51.218;6.786;2023-12-07T04:00:14;7.70;99.90
10583;DHT22;33679;51.218;6.786;2023-12-07T04:02:47;7.70;99.90
10583;DHT22;33679;51.218;6.786;2023-12-07T04:05:19;7.70;99.90
10583;DHT22;33679;51.218;6.786;2023-12-07T04:07:59;7.70;99.90
10583;DHT22;33679;51.218;6.786;2023-12-07T04:10:34;7.70;99.90
10583;DHT22;33679;51.218;6.786;2023-12-07T04:13:07;7.80;99.90
10583;DHT22;33679;51.218;6.786;2023-12-07T04:15:41;7.80;99.90
10583;DHT22;33679;51.218;6.786;2023-12-07T04:18:14;7.80;99.90
10583;DHT22;33679;51.218;6.786;2023-12-07T04:20:48;7.80;99.90
10583;DHT22;33679;51.218;6.786;2023-12-07T04:23:22;7.80;99.90
10583;DHT22;33679;51.218;6.786;2023-12-07T04:25:54;7.80;99.90
10583;DHT22;33679;51.218;6.786;2023-12-07T04:28:27;7.80;99.90
10583;DHT22;33679;51.218;6.786;2023-12-07T04:31:00;7.70;99.90
10583;DHT22;33679;51.218;6.786;2023-12-07T04:33:34;7.80;99.90
10583;DHT22;33679;51.218;6.786;2023-12-07T04:36:07;7.70;99.90
10583;DHT22;33679;51.218;6.786;2023-12-07T04:38:39;7.80;99.90
10583;DHT22;33679;51.218;6.786;2023-12-07T04:41:15;7.80;99.90
10583;DHT22;33679;51.218;6.786;2023-12-07T04:43:47;7.80;99.90
10583;DHT22;33679;51.218;6.786;2023-12-07T04:46:21;7.90;99.90
10583;DHT22;33679;51.218;6.786;2023-12-07T04:48:53;7.90;99.90
10583;DHT22;33679;51.218;6.786;2023-12-07T04:51:26;7.90;99.90
10583;DHT22;33679;51.218;6.786;2023-12-07T04:53:58;7.90;99.90
10583;DHT22;33679;51.218;6.786;2023-12-07T04:56:30;7.90;99.90
10583;DHT22;33679;51.218;6.786;2023-12-07T04:59:04;7.90;99.90
10583;DHT22;33679;51.218;6.786;2023-12-07T05:01:38;7.90;99.90
10583;DHT22;33679;51.218;6.786;2023-12-07T05:04:10;7.90;99.90
10583;DHT22;33679;51.218;6.786;2023-12-07T05:06:43;7.90;99.90
10583;DHT22;33679;51.218;6.786;2023-12-07T05:09:15;8.00;99.90
10583;DHT22;33679;51.218;6.786;2023-12-07T05:11:47;8.00;99.90
10583;DHT22;33679;51.218;6.786;2023-12-07T05:14:19;7.90;99.90
10583;DHT22;33679;51.218;6.786;2023-12-07T05:16:53;7.90;99.90
10583;DHT22;33679;51.218;6.786;2023-12-07T05:19:26;8.00;99.90
10583;DHT22;33679;51.218;6.786;2023-12-07T05:21:58;8.00;99.90
10583;DHT22;33679;51.218;6.786;2023-12-07T05:24:31;8.00;99.90
10583;DHT22;33679;51.218;6.786;2023-12-07T05:27:05;8.00;99.90
10583;DHT22;33679;51.218;6.786;2023-12-07T05:29:39;8.00;99.90
10583;DHT22;33679;51.218;6.786;2023-12-07T05:32:16;8.10;99.90
10583;DHT22;33679;51.218;6.786;2023-12-07T05:34:51;8.00;99.90
10583;DHT22;33679;51.218;6.786;2023-12-07T05:37:23;8.10;99.90
10583;DHT22;33679;51.218;6.786;2023-12-07T05:39:55;8.10;99.90
10583;DHT22;33679;51.218;6.786;2023-12-07T05:42:28;8.10;99.90
10583;DHT22;33679;51.218;6.786;2023-12-07T05:45:04;8.10;99.90
10583;DHT22;33679;51.218;6.786;2023-12-07T05:47:38;8.10;99.90
10583;DHT22;33679;51.218;6.786;2023-12-07T05:50:11;8.10;99.90
10583;DHT22;33679;51.218;6.786;2023-12-07T05:52:43;8.20;99.90
10583;DHT22;33679;51.218;6.786;2023-12-07T05:55:16;8.20;99.90
10583;DHT22;33679;51.218;6.786;2023-12-07T05:57:49;8.20;99.90
10583;DHT22;33679;51.218;6.786;2023-12-07T06:00:22;8.20;99.90
10583;DHT22;33679;51.218;6.786;2023-12-07T06:02:57;8.20;99.90
10583;DHT22;33679;51.218;6.786;2023-12-07T06:05:32;8.20;99.90
10583;DHT22;33679;51.218;6.786;2023-12-07T06:08:05;8.20;99.90
10583;DHT22;33679;51.218;6.786;2023-12-07T06:10:37;8.20;99.90
10583;DHT22;33679;51.218;6.786;2023-12-07T06:13:13;8.20;99.90
10583;DHT22;33679;51.218;6.786;2023-12-07T06:15:47;8.20;99.90
10583;DHT22;33679;51.218;6.786;2023-12-07T06:18:23;8.10;99.90
10583;DHT22;33679;51.218;6.786;2023-12-07T06:20:58;8.10;99.90
10583;DHT22;33679;51.218;6.786;2023-12-07T06:23:43;8.10;99.90
10583;DHT22;33679;51.218;6.786;2023-12-07T06:26:18;8.10;99.90
10583;DHT22;33679;51.218;6.786;2023-12-07T06:28:54;8.10;99.90
10583;DHT22;33679;51.218;6.786;2023-12-07T06:31:26;8.10;99.90
10583;DHT22;33679;51.218;6.786;2023-12-07T06:34:00;8.00;99.90
10583;DHT22;33679;51.218;6.786;2023-12-07T06:36:33;8.00;99.90
10583;DHT22;33679;51.218;6.786;2023-12-07T06:39:06;8.00;99.90
10583;DHT22;33679;51.218;6.786;2023-12-07T06:41:41;8.00;99.90
10583;DHT22;33679;51.218;6.786;2023-12-07T06:44:14;8.00;99.90
10583;DHT22;33679;51.218;6.786;2023-12-07T06:46:46;8.00;99.90
10583;DHT22;33679;51.218;6.786;2023-12-07T06:49:20;8.00;99.90
10583;DHT22;33679;51.218;6.786;2023-12-07T06:51:52;7.90;99.90
10583;DHT22;33679;51.218;6.786;2023-12-07T06:54:24;7.90;99.90
10583;DHT22;33679;51.218;6.786;2023-12-07T06:56:59;7.90;99.90
10583;DHT22;33679;51.218;6.786;2023-12-07T06:59:32;7.90;99.90
10583;DHT22;33679;51.218;6.786;2023-12-07T07:02:04;7.90;99.90
10583;DHT22;33679;51.218;6.786;2023-12-07T07:04:38;7.80;99.90
10583;DHT22;33679;51.218;6.786;2023-12-07T07:07:11;7.80;99.90
10583;DHT22;33679;51.218;6.786;2023-12-07T07:09:43;7.90;99.90
10583;DHT22;33679;51.218;6.786;2023-12-07T07:12:16;7.80;99.90
10583;DHT22;33679;51.218;6.786;2023-12-07T07:14:49;7.80;99.90
10583;DHT22;33679;51.218;6.786;2023-12-07T07:17:21;7.80;99.90
10583;DHT22;33679;51.218;6.786;2023-12-07T07:19:57;7.90;99.90
10583;DHT22;33679;51.218;6.786;2023-12-07T07:22:29;7.80;99.90
10583;DHT22;33679;51.218;6.786;2023-12-07T07:25:01;7.80;99.90
10583;DHT22;33679;51.218;6.786;2023-12-07T07:27:35;7.80;99.90
10583;DHT22;33679;51.218;6.786;2023-12-07T07:30:08;7.80;99.90
10583;DHT22;33679;51.218;6.786;2023-12-07T07:32:40;7.80;99.90
10583;DHT22;33679;51.218;6.786;2023-12-07T07:35:14;7.70;99.90
10583;DHT22;33679;51.218;6.786;2023-12-07T07:37:47;7.70;99.90
10583;DHT22;33679;51.218;6.786;2023-12-07T07:40:19;7.60;99.90
10583;DHT22;33679;51.218;6.786;2023-12-07T07:42:52;7.60;99.90
10583;DHT22;33679;51.218;6.786;2023-12-07T07:45:24;7.60;99.90
10583;DHT22;33679;51.218;6.786;2023-12-07T07:47:57;7.60;99.90
10583;DHT22;33679;51.218;6.786;2023-12-07T07:50:33;7.60;99.90
10583;DHT22;33679;51.218;6.786;2023-12-07T07:53:07;7.60;99.90
10583;DHT22;33679;51.218;6.786;2023-12-07T07:55:47;7.70;99.90
10583;DHT22;33679;51.218;6.786;2023-12-07T07:58:21;7.70;99.90
10583;DHT22;33679;51.218;6.786;2023-12-07T08:01:03;7.80;99.90
10583;DHT22;33679;51.218;6.786;2023-12-07T08:03:38;7.80;99.90
10583;DHT22;33679;51.218;6.786;2023-12-07T08:06:14;7.80;99.90
10583;DHT22;33679;51.218;6.786;2023-12-07T08:08:48;7.90;99.90
10583;DHT22;33679;51.218;6.786;2023-12-07T08:11:27;8.00;99.90
10583;DHT22;33679;51.218;6.786;2023-12-07T08:14:05;8.10;99.90
10583;DHT22;33679;51.218;6.786;2023-12-07T08:16:41;8.00;99.90
10583;DHT22;33679;51.218;6.786;2023-12-07T08:19:18;8.00;99.90
10583;DHT22;33679;51.218;6.786;2023-12-07T08:22:05;8.00;99.90
10583;DHT22;33679;51.218;6.786;2023-12-07T08:24:39;7.90;99.90
10583;DHT22;33679;51.218;6.786;2023-12-07T08:27:14;7.90;99.90
10583;DHT22;33679;51.218;6.786;2023-12-07T08:29:49;7.90;99.90
10583;DHT22;33679;51.218;6.786;2023-12-07T08:32:23;7.90;99.90
10583;DHT22;33679;51.218;6.786;2023-12-07T08:35:17;7.90;99.90
10583;DHT22;33679;51.218;6.786;2023-12-07T08:37:55;8.00;99.90
10583;DHT22;33679;51.218;6.786;2023-12-07T08:40:31;8.00;99.90
10583;DHT22;33679;51.218;6.786;2023-12-07T08:43:04;8.00;99.90
10583;DHT22;33679;51.218;6.786;2023-12-07T08:45:39;8.00;99.90
10583;DHT22;33679;51.218;6.786;2023-12-07T08:48:31;7.90;99.90
10583;DHT22;33679;51.218;6.786;2023-12-07T08:51:05;7.90;99.90
10583;DHT22;33679;51.218;6.786;2023-12-07T08:53:41;7.90;99.90
10583;DHT22;33679;51.218;6.786;2023-12-07T08:56:14;7.80;99.90
10583;DHT22;33679;51.218;6.786;2023-12-07T08:58:47;7.70;99.90
10583;DHT22;33679;51.218;6.786;2023-12-07T09:01:19;7.70;99.90
10583;DHT22;33679;51.218;6.786;2023-12-07T09:03:52;7.70;99.90
10583;DHT22;33679;51.218;6.786;2023-12-07T09:06:25;7.70;99.90
10583;DHT22;33679;51.218;6.786;2023-12-07T09:09:00;7.70;99.90
10583;DHT22;33679;51.218;6.786;2023-12-07T09:11:35;7.70;99.90
10583;DHT22;33679;51.218;6.786;2023-12-07T09:14:07;7.70;99.90
10583;DHT22;33679;51.218;6.786;2023-12-07T09:16:43;7.70;99.90
10583;DHT22;33679;51.218;6.786;2023-12-07T09:19:17;7.70;99.90
10583;DHT22;33679;51.218;6.786;2023-12-07T09:21:53;7.60;99.90
10583;DHT22;33679;51.218;6.786;2023-12-07T09:24:26;7.70;99.90
10583;DHT22;33679;51.218;6.786;2023-12-07T09:26:59;7.70;99.90
10583;DHT22;33679;51.218;6.786;2023-12-07T09:29:32;7.60;99.90
10583;DHT22;33679;51.218;6.786;2023-12-07T09:32:06;7.50;99.90
10583;DHT22;33679;51.218;6.786;2023-12-07T09:34:43;7.50;99.90
10583;DHT22;33679;51.218;6.786;2023-12-07T09:37:16;7.40;99.90
10583;DHT22;33679;51.218;6.786;2023-12-07T09:39:53;7.40;99.90
10583;DHT22;33679;51.218;6.786;2023-12-07T09:42:27;7.40;99.90
10583;DHT22;33679;51.218;6.786;2023-12-07T09:45:03;7.30;99.90
10583;DHT22;33679;51.218;6.786;2023-12-07T09:47:38;7.30;99.90
10583;DHT22;33679;51.218;6.786;2023-12-07T09:50:17;7.40;99.90
10583;DHT22;33679;51.218;6.786;2023-12-07T09:52:54;7.40;99.90
10583;DHT22;33679;51.218;6.786;2023-12-07T09:55:31;7.40;99.90
10583;DHT22;33679;51.218;6.786;2023-12-07T09:58:07;7.40;99.90
10583;DHT22;33679;51.218;6.786;2023-12-07T10:00:40;7.40;99.90
10583;DHT22;33679;51.218;6.786;2023-12-07T10:03:21;7.30;99.90
10583;DHT22;33679;51.218;6.786;2023-12-07T10:06:09;7.40;99.90
10583;DHT22;33679;51.218;6.786;2023-12-07T10:08:38;7.30;99.90
10583;DHT22;33679;51.218;6.786;2023-12-07T10:11:18;7.30;99.90
10583;DHT22;33679;51.218;6.786;2023-12-07T10:13:52;7.30;99.90
10583;DHT22;33679;51.218;6.786;2023-12-07T10:16:25;7.20;99.90
10583;DHT22;33679;51.218;6.786;2023-12-07T10:19:12;7.30;99.90
10583;DHT22;33679;51.218;6.786;2023-12-07T10:21:46;7.30;99.90
10583;DHT22;33679;51.218;6.786;2023-12-07T10:24:21;7.20;99.90
10583;DHT22;33679;51.218;6.786;2023-12-07T10:26:58;7.20;99.90
10583;DHT22;33679;51.218;6.786;2023-12-07T10:29:35;7.20;99.90
10583;DHT22;33679;51.218;6.786;2023-12-07T10:32:11;7.20;99.90
10583;DHT22;33679;51.218;6.786;2023-12-07T10:34:45;7.10;99.90
10583;DHT22;33679;51.218;6.786;2023-12-07T10:37:19;7.10;99.90
10583;DHT22;33679;51.218;6.786;2023-12-07T10:39:54;7.10;99.90
10583;DHT22;33679;51.218;6.786;2023-12-07T10:42:32;7.20;99.90
10583;DHT22;33679;51.218;6.786;2023-12-07T10:45:10;7.20;99.90
10583;DHT22;33679;51.218;6.786;2023-12-07T10:47:46;7.20;99.90
10583;DHT22;33679;51.218;6.786;2023-12-07T10:50:27;7.20;99.90
10583;DHT22;33679;51.218;6.786;2023-12-07T10:53:07;7.20;99.90
10583;DHT22;33679;51.218;6.786;2023-12-07T10:55:49;7.30;99.90
10583;DHT22;33679;51.218;6.786;2023-12-07T10:58:28;7.30;99.90
10583;DHT22;33679;51.218;6.786;2023-12-07T11:01:01;7.30;99.90
10583;DHT22;33679;51.218;6.786;2023-12-07T11:03:43;7.30;99.90
10583;DHT22;33679;51.218;6.786;2023-12-07T11:06:29;7.30;99.90
10583;DHT22;33679;51.218;6.786;2023-12-07T11:09:26;7.40;99.90
10583;DHT22;33679;51.218;6.786;2023-12-07T11:12:20;7.40;99.90
10583;DHT22;33679;51.218;6.786;2023-12-07T11:15:08;7.30;99.90
10583;DHT22;33679;51.218;6.786;2023-12-07T11:18:09;7.30;99.90
10583;DHT22;33679;51.218;6.786;2023-12-07T11:21:01;7.40;99.90
10583;DHT22;33679;51.218;6.786;2023-12-07T11:23:34;7.40;99.90
10583;DHT22;33679;51.218;6.786;2023-12-07T11:26:08;7.40;99.90
10583;DHT22;33679;51.218;6.786;2023-12-07T11:28:44;7.40;99.90
10583;DHT22;33679;51.218;6.786;2023-12-07T11:31:19;7.40;99.90
10583;DHT22;33679;51.218;6.786;2023-12-07T11:33:52;7.40;99.90
10583;DHT22;33679;51.218;6.786;2023-12-07T11:36:26;7.30;99.90
10583;DHT22;33679;51.218;6.786;2023-12-07T11:39:18;7.40;99.90
10583;DHT22;33679;51.218;6.786;2023-12-07T11:42:10;7.30;99.90
10583;DHT22;33679;51.218;6.786;2023-12-07T11:44:44;7.40;99.90
10583;DHT22;33679;51.218;6.786;2023-12-07T11:47:20;7.40;99.90
10583;DHT22;33679;51.218;6.786;2023-12-07T11:49:53;7.30;99.90
10583;DHT22;33679;51.218;6.786;2023-12-07T11:52:26;7.30;99.90
10583;DHT22;33679;51.218;6.786;2023-12-07T11:55:01;7.30;99.90
10583;DHT22;33679;51.218;6.786;2023-12-07T11:57:34;7.30;99.90
10583;DHT22;33679;51.218;6.786;2023-12-07T12:00:14;7.20;99.90
10583;DHT22;33679;51.218;6.786;2023-12-07T12:03:08;7.30;99.90
10583;DHT22;33679;51.218;6.786;2023-12-07T12:05:45;7.30;99.90
10583;DHT22;33679;51.218;6.786;2023-12-07T12:08:19;7.30;99.90
10583;DHT22;33679;51.218;6.786;2023-12-07T12:10:54;7.30;99.90
10583;DHT22;33679;51.218;6.786;2023-12-07T12:13:29;7.30;99.90
10583;DHT22;33679;51.218;6.786;2023-12-07T12:16:03;7.30;99.90
10583;DHT22;33679;51.218;6.786;2023-12-07T12:18:39;7.30;99.90
10583;DHT22;33679;51.218;6.786;2023-12-07T12:21:12;7.30;99.90
10583;DHT22;33679;51.218;6.786;2023-12-07T12:23:47;7.40;99.90
10583;DHT22;33679;51.218;6.786;2023-12-07T12:26:25;7.40;99.90
10583;DHT22;33679;51.218;6.786;2023-12-07T12:29:01;7.30;99.90
10583;DHT22;33679;51.218;6.786;2023-12-07T12:31:34;7.30;99.90
10583;DHT22;33679;51.218;6.786;2023-12-07T12:34:08;7.30;99.90
10583;DHT22;33679;51.218;6.786;2023-12-07T12:36:43;7.30;99.90
10583;DHT22;33679;51.218;6.786;2023-12-07T12:39:19;7.30;99.90
10583;DHT22;33679;51.218;6.786;2023-12-07T12:41:54;7.40;99.90
10583;DHT22;33679;51.218;6.786;2023-12-07T12:44:35;7.40;99.90
10583;DHT22;33679;51.218;6.786;2023-12-07T12:47:09;7.40;99.90
10583;DHT22;33679;51.218;6.786;2023-12-07T12:49:44;7.50;99.90
10583;DHT22;33679;51.218;6.786;2023-12-07T12:52:17;7.50;99.90
10583;DHT22;33679;51.218;6.786;2023-12-07T12:54:55;7.60;99.90
10583;DHT22;33679;51.218;6.786;2023-12-07T12:57:28;7.60;99.90
10583;DHT22;33679;51.218;6.786;2023-12-07T13:00:02;7.60;99.90
10583;DHT22;33679;51.218;6.786;2023-12-07T13:02:35;7.60;99.90
10583;DHT22;33679;51.218;6.786;2023-12-07T13:05:10;7.60;99.90
10583;DHT22;33679;51.218;6.786;2023-12-07T13:07:44;7.60;99.90
10583;DHT22;33679;51.218;6.786;2023-12-07T13:10:22;7.60;99.90
10583;DHT22;33679;51.218;6.786;2023-12-07T13:12:54;7.70;99.90
10583;DHT22;33679;51.218;6.786;2023-12-07T13:15:27;7.70;99.90
10583;DHT22;33679;51.218;6.786;2023-12-07T13:18:01;7.60;99.90
10583;DHT22;33679;51.218;6.786;2023-12-07T13:20:39;7.60;99.90
10583;DHT22;33679;51.218;6.786;2023-12-07T13:23:14;7.60;99.90
10583;DHT22;33679;51.218;6.786;2023-12-07T13:25:49;7.60;99.90
10583;DHT22;33679;51.218;6.786;2023-12-07T13:28:28;7.60;99.90
10583;DHT22;33679;51.218;6.786;2023-12-07T13:31:03;7.70;99.90
10583;DHT22;33679;51.218;6.786;2023-12-07T13:33:38;7.70;99.90
10583;DHT22;33679;51.218;6.786;2023-12-07T13:36:15;7.80;99.90
10583;DHT22;33679;51.218;6.786;2023-12-07T13:38:49;7.80;99.90
10583;DHT22;33679;51.218;6.786;2023-12-07T13:41:22;7.80;99.90
10583;DHT22;33679;51.218;6.786;2023-12-07T13:43:54;7.80;99.90
10583;DHT22;33679;51.218;6.786;2023-12-07T13:46:28;7.80;99.90
10583;DHT22;33679;51.218;6.786;2023-12-07T13:49:04;7.90;99.90
10583;DHT22;33679;51.218;6.786;2023-12-07T13:51:40;7.80;99.90
10583;DHT22;33679;51.218;6.786;2023-12-07T13:54:17;7.80;99.90
10583;DHT22;33679;51.218;6.786;2023-12-07T13:56:50;7.90;99.90
10583;DHT22;33679;51.218;6.786;2023-12-07T13:59:23;7.90;99.90
10583;DHT22;33679;51.218;6.786;2023-12-07T14:01:55;8.10;99.90
10583;DHT22;33679;51.218;6.786;2023-12-07T14:04:30;8.10;99.90
10583;DHT22;33679;51.218;6.786;2023-12-07T14:07:12;8.20;99.90
10583;DHT22;33679;51.218;6.786;2023-12-07T14:09:46;8.20;99.90
10583;DHT22;33679;51.218;6.786;2023-12-07T14:12:21;8.10;99.90
10583;DHT22;33679;51.218;6.786;2023-12-07T14:14:54;8.20;99.90
10583;DHT22;33679;51.218;6.786;2023-12-07T14:17:28;8.10;99.90
10583;DHT22;33679;51.218;6.786;2023-12-07T14:20:08;8.10;99.90
10583;DHT22;33679;51.218;6.786;2023-12-07T14:22:42;8.10;99.90
10583;DHT22;33679;51.218;6.786;2023-12-07T14:25:18;8.10;99.90
10583;DHT22;33679;51.218;6.786;2023-12-07T14:27:50;8.10;99.90
10583;DHT22;33679;51.218;6.786;2023-12-07T14:30:22;8.10;99.90
10583;DHT22;33679;51.218;6.786;2023-12-07T14:32:55;8.10;99.90
10583;DHT22;33679;51.218;6.786;2023-12-07T14:35:28;8.10;99.90
10583;DHT22;33679;51.218;6.786;2023-12-07T14:38:02;8.10;99.90
10583;DHT22;33679;51.218;6.786;2023-12-07T14:40:35;8.10;99.90
10583;DHT22;33679;51.218;6.786;2023-12-07T14:43:07;8.10;99.90
10583;DHT22;33679;51.218;6.786;2023-12-07T14:45:42;8.10;99.90
10583;DHT22;33679;51.218;6.786;2023-12-07T14:48:15;8.10;99.90
10583;DHT22;33679;51.218;6.786;2023-12-07T14:50:48;8.10;99.90
10583;DHT22;33679;51.218;6.786;2023-12-07T14:53:23;8.00;99.90
10583;DHT22;33679;51.218;6.786;2023-12-07T14:55:56;8.00;99.90
10583;DHT22;33679;51.218;6.786;2023-12-07T14:58:29;8.00;99.90
10583;DHT22;33679;51.218;6.786;2023-12-07T15:01:02;8.00;99.90
10583;DHT22;33679;51.218;6.786;2023-12-07T15:03:34;8.00;99.90
10583;DHT22;33679;51.218;6.786;2023-12-07T15:06:10;8.00;99.90
10583;DHT22;33679;51.218;6.786;2023-12-07T15:08:43;8.00;99.90
10583;DHT22;33679;51.218;6.786;2023-12-07T15:11:16;8.00;99.90
10583;DHT22;33679;51.218;6.786;2023-12-07T15:13:48;7.90;99.90
10583;DHT22;33679;51.218;6.786;2023-12-07T15:16:23;7.90;99.90
10583;DHT22;33679;51.218;6.786;2023-12-07T15:18:57;7.90;99.90
10583;DHT22;33679;51.218;6.786;2023-12-07T15:21:31;7.80;99.90
10583;DHT22;33679;51.218;6.786;2023-12-07T15:24:06;7.80;99.90
10583;DHT22;33679;51.218;6.786;2023-12-07T15:26:42;7.70;99.90
10583;DHT22;33679;51.218;6.786;2023-12-07T15:29:16;7.70;99.90
10583;DHT22;33679;51.218;6.786;2023-12-07T15:31:51;7.70;99.90
10583;DHT22;33679;51.218;6.786;2023-12-07T15:34:25;7.60;99.90
10583;DHT22;33679;51.218;6.786;2023-12-07T15:36:59;7.60;99.90
10583;DHT22;33679;51.218;6.786;2023-12-07T15:39:34;7.60;99.90
10583;DHT22;33679;51.218;6.786;2023-12-07T15:42:13;7.60;99.90
10583;DHT22;33679;51.218;6.786;2023-12-07T15:44:45;7.60;99.90
10583;DHT22;33679;51.218;6.786;2023-12-07T15:47:18;7.50;99.90
10583;DHT22;33679;51.218;6.786;2023-12-07T15:49:53;7.50;99.90
10583;DHT22;33679;51.218;6.786;2023-12-07T15:52:29;7.50;99.90
10583;DHT22;33679;51.218;6.786;2023-12-07T15:55:04;7.50;99.90
10583;DHT22;33679;51.218;6.786;2023-12-07T15:57:37;7.50;99.90
10583;DHT22;33679;51.218;6.786;2023-12-07T16:00:11;7.50;99.90
10583;DHT22;33679;51.218;6.786;2023-12-07T16:02:44;7.60;99.90
10583;DHT22;33679;51.218;6.786;2023-12-07T16:05:17;7.60;99.90
10583;DHT22;33679;51.218;6.786;2023-12-07T16:07:50;7.70;99.90
10583;DHT22;33679;51.218;6.786;2023-12-07T16:10:25;7.70;99.90
10583;DHT22;33679;51.218;6.786;2023-12-07T16:12:58;7.70;99.90
10583;DHT22;33679;51.218;6.786;2023-12-07T16:19:27;7.70;99.90
10583;DHT22;33679;51.218;6.786;2023-12-07T16:22:00;7.80;99.90
10583;DHT22;33679;51.218;6.786;2023-12-07T16:24:34;7.80;99.90
10583;DHT22;33679;51.218;6.786;2023-12-07T16:27:08;7.70;99.90
10583;DHT22;33679;51.218;6.786;2023-12-07T16:29:43;7.60;99.90
10583;DHT22;33679;51.218;6.786;2023-12-07T16:32:16;7.50;99.90
10583;DHT22;33679;51.218;6.786;2023-12-07T16:34:49;7.40;99.90
10583;DHT22;33679;51.218;6.786;2023-12-07T16:37:21;7.40;99.90